עמוד ראשי
METAR-TAF:

METAR-TAF

שדות תעופה :

Stornoway, סקוטלנד

קו רוחב: 58-13N, קו אורך: 006-19W, גובה: 9מטר

תצפית מזג אוויר נוכחית

הדו"ח נערך לפני 40דקות, בשעה 04:50 UTC
רוח רגועה
טמפרטורת 9 צלסיוס
לחות 93%
לחץ 1016 hPa
ראות 10 קילומטר או יותר

METAR: EGPO 200450Z AUTO 00000KT 9999 BKN031/// 09/08 Q1016

זמן: 06:30 (05:30 UTC)

תחזית

הדו"ח נערך לפני 2 שעות ו 33דקות, בשעה 02:57 UTC
תחזית בתוקף מ 20 ב 03 UTC עד 20 ב 12 UTC
רוח 5קשר מכיוון צפון-מזרח
ראות 10 קילומטר או יותר
עננים בינוניים בגובה 800רגל
יעשה מ
20 ב 03 UTC עד 20 ב 06 UTC
מעט עננים בגובה 3000רגל

TAF: EGPO 200257Z 2003/2012 04005KT 9999 BKN008 BECMG 2003/2006 FEW030

תצפיות ותחזיות מזג אוויר לגבי יותר מ- 4,000 שדות תעופה ברחבי העולם. דוחות METAR ו- TAF.

התחנות הזמינות מסומנות בנקודות צהובות ואדומות על גבי המפה.

העבר את העכבר לנקודה הצבעונית על מנת לראות את שם התחנה.

לאחר מכן, לחץ כדי לראות את תוכן ואת תחזיות מזג האוויר.

כדי לשנות את המפה: לחץ על הכפתורים הירוקים עם הפלוס השחור כדי להתקרב; על הכפתור הירוק עם המקף כדי להתרחק; או בחיצים הירוקים למפות סמוכות.


METAR-TAF: